createdAt,value
2018-09-04T00:01:59.927Z,8.90
2018-09-04T00:04:29.274Z,10.10
2018-09-04T00:07:00.678Z,14.43
2018-09-04T00:09:29.436Z,8.47
2018-09-04T00:12:02.513Z,12.10
2018-09-04T00:14:31.995Z,9.50
2018-09-04T00:17:00.180Z,13.63
2018-09-04T00:19:30.346Z,8.47
2018-09-04T00:21:59.710Z,20.00
2018-09-04T00:24:30.393Z,12.17
2018-09-04T00:27:00.298Z,13.57
2018-09-04T00:34:56.940Z,9.10
2018-09-04T00:37:34.180Z,13.20
2018-09-04T00:40:05.934Z,10.37
2018-09-04T00:42:38.796Z,9.83
2018-09-04T00:45:11.249Z,9.10
2018-09-04T00:47:40.521Z,12.33
2018-09-04T00:50:12.469Z,15.63
2018-09-04T00:52:41.778Z,12.67
2018-09-04T00:55:12.977Z,15.10
2018-09-04T00:57:41.657Z,13.40
2018-09-04T01:00:12.495Z,10.13
2018-09-04T01:02:43.802Z,10.83
2018-09-04T01:05:13.146Z,13.40
2018-09-04T01:07:44.527Z,17.17
2018-09-04T01:10:13.242Z,13.63
2018-09-04T01:12:42.814Z,10.67
2018-09-04T01:15:11.422Z,10.37
2018-09-04T01:17:41.940Z,11.00
2018-09-04T01:20:11.066Z,12.10
2018-09-04T01:22:42.672Z,11.93
2018-09-04T01:25:13.781Z,18.43
2018-09-04T01:27:42.896Z,14.33
2018-09-04T01:30:13.743Z,15.40
2018-09-04T01:32:46.258Z,13.83
2018-09-04T01:35:17.320Z,9.43
2018-09-04T01:37:47.026Z,11.17
2018-09-04T01:40:18.096Z,11.30
2018-09-04T01:42:47.718Z,10.47
2018-09-04T01:45:18.282Z,14.33
2018-09-04T01:47:49.589Z,12.03
2018-09-04T01:50:20.553Z,12.80
2018-09-04T01:52:51.148Z,12.37
2018-09-04T01:55:23.076Z,11.33
2018-09-04T01:57:52.816Z,16.70
2018-09-04T02:00:22.213Z,12.53
2018-09-04T02:02:50.887Z,11.00
2018-09-04T02:05:20.303Z,10.40
2018-09-04T02:07:49.666Z,10.87
2018-09-04T02:10:23.424Z,10.43
2018-09-04T02:12:51.923Z,11.67
2018-09-04T02:15:21.203Z,15.60
2018-09-04T02:17:52.336Z,13.00
2018-09-04T02:20:20.577Z,10.90
2018-09-04T02:22:50.469Z,13.87
2018-09-04T02:25:24.462Z,15.97
2018-09-04T02:27:54.236Z,13.17
2018-09-04T02:30:24.462Z,13.23
2018-09-04T02:32:55.159Z,9.83
2018-09-04T02:35:26.243Z,10.50
2018-09-04T02:37:57.271Z,14.60
2018-09-04T02:40:26.972Z,11.13
2018-09-04T02:42:56.533Z,8.87
2018-09-04T02:52:33.353Z,13.10
2018-09-04T02:55:02.401Z,12.40
2018-09-04T02:57:31.501Z,12.47
2018-09-04T03:00:00.614Z,11.60
2018-09-04T03:02:32.117Z,12.17
2018-09-04T03:05:01.131Z,11.33
2018-09-04T03:07:30.962Z,11.00
2018-09-04T03:10:08.958Z,10.17
2018-09-04T03:12:40.458Z,15.00
2018-09-04T03:15:10.174Z,10.63
2018-09-04T03:17:42.748Z,18.37
2018-09-04T03:20:13.890Z,19.43
2018-09-04T03:22:44.844Z,12.07
2018-09-04T03:25:17.643Z,12.53
2018-09-04T03:27:46.359Z,17.93
2018-09-04T03:30:17.545Z,11.07
2018-09-04T03:32:48.647Z,10.57
2018-09-04T03:35:18.603Z,10.97
2018-09-04T03:37:48.639Z,11.60
2018-09-04T03:40:17.850Z,12.87
2018-09-04T03:42:48.238Z,14.43
2018-09-04T03:45:17.195Z,11.30
2018-09-04T03:47:45.979Z,16.47
2018-09-04T03:50:17.315Z,11.37
2018-09-04T03:53:52.169Z,11.53
2018-09-04T03:56:22.832Z,16.40
2018-09-04T03:58:53.072Z,15.53
2018-09-04T04:01:23.177Z,19.63
2018-09-04T04:03:54.507Z,13.67
2018-09-04T04:06:24.487Z,12.13
2018-09-04T04:08:54.443Z,11.83
2018-09-04T04:11:23.429Z,12.47
2018-09-04T04:13:52.870Z,17.13
2018-09-04T04:16:21.490Z,11.10
2018-09-04T04:18:51.439Z,10.20
2018-09-04T04:21:22.882Z,9.17
2018-09-04T04:23:55.215Z,7.57
2018-09-04T04:26:25.667Z,10.40
2018-09-04T04:28:57.844Z,11.63
2018-09-04T04:31:30.154Z,7.47
2018-09-04T04:34:01.463Z,12.93
2018-09-04T04:36:36.028Z,8.33
2018-09-04T04:39:07.327Z,8.40
2018-09-04T04:41:36.105Z,9.07
2018-09-04T04:44:07.012Z,8.77
2018-09-04T04:46:41.079Z,9.47
2018-09-04T04:49:11.582Z,8.97
2018-09-04T04:51:45.367Z,9.30
2018-09-04T04:54:14.856Z,11.20
2018-09-04T04:56:45.730Z,11.07
2018-09-04T04:59:16.867Z,9.23
2018-09-04T05:01:47.276Z,13.17
2018-09-04T05:04:17.192Z,12.43
2018-09-04T05:06:47.016Z,9.50
2018-09-04T05:09:21.511Z,11.03
2018-09-04T05:11:54.703Z,12.67
2018-09-04T05:14:24.819Z,12.53
2018-09-04T05:16:55.254Z,17.10
2018-09-04T05:19:29.372Z,10.60
2018-09-04T05:21:59.795Z,14.80
2018-09-04T05:24:30.357Z,12.33
2018-09-04T05:27:02.472Z,10.93
2018-09-04T05:29:37.548Z,18.63
2018-09-04T05:33:10.576Z,9.70
2018-09-04T05:35:46.139Z,23.23
2018-09-04T05:38:15.635Z,12.27
2018-09-04T05:40:44.180Z,10.77
2018-09-04T05:43:17.224Z,14.87
2018-09-04T05:45:46.451Z,10.93
2018-09-04T05:48:15.977Z,15.80
2018-09-04T05:50:44.606Z,10.43
2018-09-04T05:53:13.511Z,11.07
2018-09-04T05:55:42.336Z,13.47
2018-09-04T05:58:11.073Z,15.77
2018-09-04T06:00:45.710Z,11.10
2018-09-04T06:03:14.131Z,14.20
2018-09-04T06:05:42.693Z,15.30
2018-09-04T06:08:10.986Z,16.50
2018-09-04T06:10:39.677Z,12.07
2018-09-04T06:13:08.036Z,13.77
2018-09-04T06:15:36.728Z,12.40
2018-09-04T06:18:05.318Z,20.27
2018-09-04T06:20:33.838Z,13.77
2018-09-04T06:23:02.332Z,17.10
2018-09-04T06:25:30.872Z,13.13
2018-09-04T06:27:59.362Z,18.67
2018-09-04T06:30:27.897Z,16.57
2018-09-04T06:32:56.423Z,13.77
2018-09-04T06:35:24.659Z,20.23
2018-09-04T06:37:52.933Z,14.60
2018-09-04T06:40:23.805Z,19.90
2018-09-04T06:42:52.396Z,16.33
2018-09-04T06:45:21.131Z,16.20
2018-09-04T06:47:49.943Z,19.80
2018-09-04T06:50:18.443Z,15.07
2018-09-04T06:52:47.101Z,15.83
2018-09-04T06:55:15.593Z,16.20
2018-09-04T06:57:44.245Z,14.60
2018-09-04T07:00:14.362Z,17.50
2018-09-04T07:02:42.874Z,16.27
2018-09-04T07:05:12.210Z,15.63
2018-09-04T07:07:41.301Z,15.50
2018-09-04T07:10:10.440Z,15.90
2018-09-04T07:12:39.531Z,22.33
2018-09-04T07:15:08.337Z,14.07
2018-09-04T07:17:36.780Z,16.27
2018-09-04T07:20:05.667Z,15.27
2018-09-04T07:22:34.390Z,16.00
2018-09-04T07:25:02.978Z,15.70
2018-09-04T07:27:31.699Z,15.83
2018-09-04T07:30:00.203Z,16.20
2018-09-04T07:32:28.684Z,13.53
2018-09-04T07:34:57.178Z,20.83
2018-09-04T07:37:25.751Z,13.50
2018-09-04T07:39:53.961Z,14.20
2018-09-04T07:42:22.526Z,14.10
2018-09-04T07:44:51.078Z,13.27
2018-09-04T07:47:19.587Z,15.40
2018-09-04T07:49:48.067Z,20.40
2018-09-04T07:52:16.614Z,18.37
2018-09-04T07:54:45.113Z,18.40
2018-09-04T07:57:13.579Z,20.63
2018-09-04T07:59:42.067Z,22.20
2018-09-04T08:02:10.569Z,20.93
2018-09-04T08:04:39.068Z,23.93
2018-09-04T08:07:07.743Z,19.00
2018-09-04T08:09:36.222Z,20.23
2018-09-04T08:12:04.767Z,21.53
2018-09-04T08:14:33.209Z,16.63
2018-09-04T08:17:01.824Z,36.27
2018-09-04T08:19:30.379Z,26.73
2018-09-04T08:21:58.890Z,35.33
2018-09-04T08:24:27.465Z,44.43
2018-09-04T08:26:56.077Z,49.23
2018-09-04T08:29:24.641Z,56.93
2018-09-04T08:31:53.154Z,48.60
2018-09-04T08:34:21.664Z,59.23
2018-09-04T08:36:50.131Z,54.07
2018-09-04T08:39:18.373Z,50.83
2018-09-04T08:41:46.960Z,51.20
2018-09-04T08:44:15.490Z,47.73
2018-09-04T08:46:43.702Z,45.63
2018-09-04T08:49:12.239Z,42.40
2018-09-04T08:51:40.776Z,41.43
2018-09-04T08:54:09.296Z,34.40
2018-09-04T08:56:37.613Z,39.13
2018-09-04T08:59:06.761Z,36.57
2018-09-04T09:01:35.336Z,46.50
2018-09-04T09:04:03.800Z,52.37
2018-09-04T09:06:32.252Z,58.40
2018-09-04T09:09:00.713Z,47.00
2018-09-04T09:11:29.515Z,47.43
2018-09-04T09:13:58.196Z,54.70
2018-09-04T09:16:26.893Z,41.10
2018-09-04T09:18:55.370Z,35.87
2018-09-04T09:21:23.862Z,34.90
2018-09-04T09:23:52.130Z,26.47
2018-09-04T09:26:20.877Z,21.40
2018-09-04T09:28:49.497Z,24.57
2018-09-04T09:31:18.099Z,22.17
2018-09-04T09:33:46.838Z,26.03
2018-09-04T09:36:15.322Z,22.90
2018-09-04T09:38:43.998Z,25.60
2018-09-04T09:41:12.203Z,27.27
2018-09-04T09:43:40.452Z,28.07
2018-09-04T09:46:09.027Z,30.33
2018-09-04T09:48:40.273Z,33.47
2018-09-04T09:51:09.637Z,26.43
2018-09-04T09:53:38.464Z,27.50
2018-09-04T09:56:07.151Z,44.27
2018-09-04T09:58:35.576Z,18.23
2018-09-04T10:01:09.493Z,19.70
2018-09-04T10:03:43.389Z,17.17
2018-09-04T10:06:11.913Z,16.97
2018-09-04T10:08:40.384Z,19.87
2018-09-04T10:11:09.020Z,18.30
2018-09-04T10:13:37.615Z,18.50
2018-09-04T10:16:05.795Z,16.77
2018-09-04T10:18:34.484Z,16.50
2018-09-04T10:21:03.018Z,20.77
2018-09-04T10:23:31.562Z,23.93
2018-09-04T10:26:00.035Z,19.27
2018-09-04T10:28:28.495Z,17.50
2018-09-04T10:30:57.123Z,24.83
2018-09-04T10:33:25.401Z,19.20
2018-09-04T10:35:54.056Z,16.53
2018-09-04T10:38:25.727Z,18.93
2018-09-04T10:41:00.158Z,22.77
2018-09-04T10:43:29.672Z,18.93
2018-09-04T10:46:07.396Z,17.87
2018-09-04T10:48:36.023Z,22.17
2018-09-04T10:51:05.026Z,18.77
2018-09-04T10:53:33.469Z,20.70
2018-09-04T10:56:01.986Z,21.33
2018-09-04T10:58:30.488Z,18.60
2018-09-04T11:00:58.825Z,24.67
2018-09-04T11:03:27.596Z,23.33
2018-09-04T11:05:56.223Z,24.83
2018-09-04T11:08:24.875Z,34.27
2018-09-04T11:10:53.491Z,27.47
2018-09-04T11:13:23.435Z,29.30
2018-09-04T11:15:51.964Z,25.87
2018-09-04T11:18:21.808Z,23.20
2018-09-04T11:20:51.357Z,23.20
2018-09-04T11:23:21.897Z,25.60
2018-09-04T11:25:50.587Z,28.03
2018-09-04T11:28:21.476Z,30.33
2018-09-04T11:30:52.051Z,30.47
2018-09-04T11:33:21.359Z,34.80
2018-09-04T11:35:54.946Z,42.93
2018-09-04T11:38:26.767Z,64.33
2018-09-04T11:40:57.719Z,88.90
2018-09-04T11:43:28.484Z,68.83
2018-09-04T11:45:57.665Z,96.00
2018-09-04T11:48:26.571Z,73.23
2018-09-04T11:50:55.105Z,61.57
2018-09-04T11:53:25.113Z,35.03
2018-09-04T11:55:54.784Z,39.90
2018-09-04T11:58:24.304Z,32.10
2018-09-04T12:00:53.458Z,34.67
2018-09-04T12:03:22.467Z,35.40
2018-09-04T12:05:53.197Z,36.37
2018-09-04T12:08:28.036Z,31.87
2018-09-04T12:10:58.083Z,32.43
2018-09-04T12:13:33.371Z,38.80
2018-09-04T12:16:04.863Z,44.50
2018-09-04T12:18:36.439Z,50.87
2018-09-04T12:21:06.767Z,37.27
2018-09-04T12:23:37.213Z,50.23
2018-09-04T12:26:08.133Z,38.97
2018-09-04T12:28:37.418Z,39.50
2018-09-04T12:31:07.472Z,45.30
2018-09-04T12:33:36.900Z,34.47
2018-09-04T12:36:10.562Z,40.60
2018-09-04T12:38:41.021Z,39.80
2018-09-04T12:41:17.421Z,35.00
2018-09-04T12:43:46.676Z,45.77
2018-09-04T12:46:17.313Z,43.60
2018-09-04T12:48:50.296Z,32.57
2018-09-04T12:51:19.528Z,37.37
2018-09-04T12:53:50.951Z,32.27
2018-09-04T12:56:22.097Z,31.67
2018-09-04T12:58:50.904Z,34.83
2018-09-04T13:01:20.387Z,35.97
2018-09-04T13:03:50.401Z,31.37
2018-09-04T13:06:20.417Z,36.80
2018-09-04T13:08:49.999Z,34.23
2018-09-04T13:12:22.981Z,35.27
2018-09-04T13:14:54.483Z,35.63
2018-09-04T13:17:24.801Z,38.17
2018-09-04T13:19:55.623Z,37.47
2018-09-04T13:22:24.144Z,39.50
2018-09-04T13:24:52.549Z,46.90
2018-09-04T13:27:22.824Z,37.37
2018-09-04T13:29:52.142Z,42.80
2018-09-04T13:32:22.982Z,49.90
2018-09-04T13:34:58.627Z,45.03
2018-09-04T13:37:28.594Z,42.13
2018-09-04T13:40:01.632Z,42.03
2018-09-04T13:42:33.728Z,46.57
2018-09-04T13:45:04.920Z,33.47
2018-09-04T13:47:34.400Z,39.90
2018-09-04T13:50:03.602Z,45.00
2018-09-04T13:52:34.039Z,51.03
2018-09-04T13:55:04.318Z,42.03
2018-09-04T13:57:33.796Z,39.57
2018-09-04T14:00:03.509Z,43.90
2018-09-04T14:02:33.903Z,42.13
2018-09-04T14:05:02.843Z,45.67
2018-09-04T14:07:31.776Z,40.50
2018-09-04T14:10:01.004Z,44.70
2018-09-04T14:12:31.371Z,40.83
2018-09-04T14:15:02.468Z,37.53
2018-09-04T14:17:43.975Z,44.17
2018-09-04T14:20:13.006Z,36.67
2018-09-04T14:22:44.007Z,36.30
2018-09-04T14:53:57.716Z,30.97
2018-09-04T14:56:27.281Z,32.33
2018-09-04T14:58:57.430Z,36.97
2018-09-04T15:01:29.134Z,34.80
2018-09-04T15:03:58.025Z,36.77
2018-09-04T15:06:28.280Z,31.33
2018-09-04T15:08:57.593Z,32.23
2018-09-04T15:11:28.515Z,31.73
2018-09-04T15:13:58.490Z,27.77
2018-09-04T15:16:28.899Z,28.73
2018-09-04T15:18:59.777Z,31.73
2018-09-04T15:21:29.820Z,31.57
2018-09-04T15:24:01.300Z,27.80
2018-09-04T15:26:34.173Z,26.87
2018-09-04T15:29:05.664Z,30.20
2018-09-04T15:31:34.431Z,27.73
2018-09-04T15:34:07.042Z,33.37
2018-09-04T15:36:35.283Z,33.33
2018-09-04T15:39:05.315Z,25.63
2018-09-04T15:41:34.494Z,30.17
2018-09-04T15:44:04.751Z,27.57
2018-09-04T15:46:38.977Z,25.20
2018-09-04T15:49:13.653Z,32.53
2018-09-04T15:51:42.969Z,27.33
2018-09-04T15:54:12.482Z,26.60
2018-09-04T15:56:40.796Z,19.60
2018-09-04T15:59:09.286Z,24.00
2018-09-04T16:01:40.662Z,24.97
2018-09-04T16:04:12.202Z,20.20
2018-09-04T16:06:42.691Z,16.33
2018-09-04T16:09:12.822Z,20.67
2018-09-04T16:11:42.685Z,21.63
2018-09-04T16:14:11.455Z,21.93
2018-09-04T16:16:43.056Z,25.90
2018-09-04T16:19:15.638Z,23.97
2018-09-04T16:21:47.942Z,18.80
2018-09-04T16:24:18.329Z,29.03
2018-09-04T16:26:47.786Z,29.13
2018-09-04T16:29:19.989Z,19.93
2018-09-04T16:31:55.200Z,20.90
2018-09-04T16:34:28.083Z,18.60
2018-09-04T16:36:58.535Z,20.13
2018-09-04T16:39:31.428Z,32.03
2018-09-04T16:42:01.404Z,19.77
2018-09-04T16:44:32.523Z,20.97
2018-09-04T16:47:04.208Z,21.60
2018-09-04T16:49:37.717Z,22.23
2018-09-04T16:52:14.164Z,18.40
2018-09-04T16:54:44.302Z,21.73
2018-09-04T16:57:18.111Z,21.70
2018-09-04T16:59:46.613Z,19.17
2018-09-04T17:02:18.567Z,18.83
2018-09-04T17:04:49.760Z,19.10
2018-09-04T17:07:18.923Z,19.00
2018-09-04T17:09:48.127Z,18.00
2018-09-04T17:12:16.696Z,17.50
2018-09-04T17:14:45.756Z,18.43
2018-09-04T17:17:14.953Z,16.60
2018-09-04T17:19:45.929Z,19.03
2018-09-04T17:22:16.083Z,20.23
2018-09-04T17:24:45.681Z,18.77
2018-09-04T17:27:19.102Z,19.13
2018-09-04T17:30:50.591Z,24.40
2018-09-04T17:33:20.504Z,27.23
2018-09-04T17:35:49.809Z,25.87
2018-09-04T17:38:19.676Z,22.80
2018-09-04T17:40:48.300Z,29.23
2018-09-04T17:43:17.091Z,21.17
2018-09-04T17:45:45.480Z,30.03
2018-09-04T17:48:13.759Z,24.77
2018-09-04T17:50:42.446Z,21.40
2018-09-04T17:53:11.025Z,21.13
2018-09-04T17:55:39.556Z,26.03
2018-09-04T18:05:06.233Z,40.13
2018-09-04T18:07:34.875Z,30.33
2018-09-04T18:10:03.634Z,24.53
2018-09-04T18:13:37.174Z,28.30
2018-09-04T18:16:05.650Z,29.07
2018-09-04T18:18:37.972Z,26.43
2018-09-04T18:21:08.018Z,25.10
2018-09-04T18:23:37.145Z,22.43
2018-09-04T18:26:07.010Z,29.03
2018-09-04T18:28:35.259Z,24.77
2018-09-04T18:31:03.956Z,26.20
2018-09-04T18:33:32.654Z,23.83
2018-09-04T18:36:02.062Z,23.70
2018-09-04T18:38:30.714Z,24.20
2018-09-04T18:41:00.198Z,21.50
2018-09-04T18:43:30.690Z,26.77
2018-09-04T18:45:59.831Z,19.70
2018-09-04T18:48:31.341Z,20.23
2018-09-04T18:50:59.808Z,20.87
2018-09-04T18:53:30.711Z,26.30
2018-09-04T18:56:01.072Z,20.87
2018-09-04T18:58:29.732Z,21.90
2018-09-04T19:01:00.319Z,23.43
2018-09-04T19:03:30.553Z,19.50
2018-09-04T19:06:00.265Z,26.43
2018-09-04T19:08:29.393Z,41.07
2018-09-04T19:12:01.865Z,42.97
2018-09-04T19:14:32.280Z,35.90
2018-09-04T19:17:02.227Z,34.07
2018-09-04T19:19:30.907Z,30.47
2018-09-04T19:22:00.494Z,31.30
2018-09-04T19:24:29.195Z,21.53
2018-09-04T19:26:58.833Z,23.60
2018-09-04T19:29:28.171Z,23.77
2018-09-04T19:31:57.532Z,27.27
2018-09-04T19:34:26.957Z,58.47
2018-09-04T19:36:56.268Z,55.50
2018-09-04T19:39:25.516Z,22.97
2018-09-04T19:41:54.800Z,25.50
2018-09-04T19:44:26.749Z,35.63
2018-09-04T19:46:57.564Z,25.47
2018-09-04T19:49:27.272Z,22.60
2018-09-04T19:51:58.377Z,32.93
2018-09-04T19:57:07.374Z,118.40
2018-09-04T19:59:39.657Z,107.33
2018-09-04T20:02:12.260Z,72.97
2018-09-04T20:04:42.933Z,38.20
2018-09-04T20:07:11.880Z,30.63
2018-09-04T20:09:41.099Z,39.03
2018-09-04T20:12:12.352Z,37.43
2018-09-04T20:14:43.349Z,39.23
2018-09-04T20:17:13.335Z,51.20
2018-09-04T20:19:46.257Z,60.17
2018-09-04T20:22:18.747Z,36.57
2018-09-04T20:24:49.761Z,26.00
2018-09-04T20:27:21.299Z,35.07
2018-09-04T20:29:50.042Z,38.63
2018-09-04T20:32:18.338Z,23.20
2018-09-04T20:34:47.921Z,20.80
2018-09-04T20:37:22.322Z,24.93
2018-09-04T20:40:03.523Z,20.80
2018-09-04T20:42:51.419Z,26.87
2018-09-04T20:45:22.742Z,34.37
2018-09-04T20:47:54.896Z,26.60
2018-09-04T20:50:40.078Z,21.10
2018-09-04T20:53:16.931Z,20.37
2018-09-04T20:56:05.296Z,19.23
2018-09-04T20:58:45.173Z,20.87
2018-09-04T21:01:19.798Z,18.97
2018-09-04T21:04:01.244Z,20.23
2018-09-04T21:06:42.914Z,20.30
2018-09-04T21:09:32.836Z,21.20
2018-09-04T21:12:02.715Z,26.70
2018-09-04T21:14:34.300Z,22.60
2018-09-04T21:17:04.094Z,33.10
2018-09-04T21:19:33.737Z,18.57
2018-09-04T21:22:10.046Z,25.10
2018-09-04T21:24:43.669Z,17.40
2018-09-04T21:30:01.027Z,31.40
2018-09-04T21:32:31.120Z,28.77
2018-09-04T21:35:00.934Z,23.47
2018-09-04T21:37:31.756Z,19.13
2018-09-04T21:40:05.499Z,19.80
2018-09-04T21:42:35.129Z,22.70
2018-09-04T21:45:04.906Z,26.07
2018-09-04T21:47:35.212Z,22.90
2018-09-04T21:50:03.588Z,17.93
2018-09-04T21:52:34.630Z,24.80
2018-09-04T21:55:03.344Z,16.33
2018-09-04T21:57:31.739Z,20.43
2018-09-04T21:59:59.954Z,20.60
2018-09-04T22:02:29.350Z,16.33
2018-09-04T22:04:59.807Z,13.93
2018-09-04T22:07:28.868Z,18.13
2018-09-04T22:10:00.160Z,14.97
2018-09-04T22:12:29.762Z,14.93
2018-09-04T22:14:58.360Z,11.93
2018-09-04T22:17:28.991Z,13.07
2018-09-04T22:20:00.078Z,11.40
2018-09-04T22:22:28.638Z,12.43
2018-09-04T22:24:58.611Z,15.10
2018-09-04T22:27:31.396Z,13.13
2018-09-04T22:30:00.686Z,17.70
2018-09-04T22:32:29.926Z,33.63
2018-09-04T22:34:58.363Z,83.33
2018-09-04T22:37:26.730Z,47.63
2018-09-04T22:39:56.179Z,25.53
2018-09-04T22:42:27.191Z,31.37
2018-09-04T22:44:56.434Z,26.67
2018-09-04T22:47:25.764Z,42.63
2018-09-04T22:50:02.279Z,40.90
2018-09-04T22:52:32.499Z,34.10
2018-09-04T22:55:03.140Z,22.60
2018-09-04T22:57:31.954Z,25.20
2018-09-04T23:00:00.668Z,30.10
2018-09-04T23:02:29.216Z,18.73
2018-09-04T23:04:58.282Z,22.30
2018-09-04T23:07:26.812Z,21.83
2018-09-04T23:09:56.359Z,26.40
2018-09-04T23:12:25.139Z,21.93
2018-09-04T23:14:53.836Z,24.73
2018-09-04T23:17:23.281Z,22.83
2018-09-04T23:19:52.000Z,23.83
2018-09-04T23:22:20.541Z,31.00
2018-09-04T23:24:48.963Z,22.53
2018-09-04T23:27:17.564Z,20.37
2018-09-04T23:29:49.610Z,24.70
2018-09-04T23:32:18.171Z,20.50
2018-09-04T23:34:46.693Z,21.77
2018-09-04T23:37:15.362Z,19.00
2018-09-04T23:39:44.476Z,23.73
2018-09-04T23:42:13.118Z,23.10
2018-09-04T23:44:41.767Z,20.90
2018-09-04T23:47:10.350Z,27.10
2018-09-04T23:49:38.941Z,35.27
2018-09-04T23:52:07.559Z,23.40
2018-09-04T23:54:37.195Z,29.57
2018-09-04T23:57:05.940Z,29.60
2018-09-04T23:59:35.485Z,24.43
